createdAt,value
2023-03-13T00:00:14.320Z,95.27
2023-03-13T00:02:40.694Z,95.35
2023-03-13T00:05:07.100Z,95.40
2023-03-13T00:07:33.428Z,95.53
2023-03-13T00:09:59.788Z,95.61
2023-03-13T00:12:26.188Z,95.68
2023-03-13T00:14:52.510Z,95.72
2023-03-13T00:17:18.866Z,95.73
2023-03-13T00:19:45.192Z,95.83
2023-03-13T00:22:11.582Z,95.81
2023-03-13T00:24:37.960Z,95.92
2023-03-13T00:27:06.608Z,96.00
2023-03-13T00:29:32.923Z,95.99
2023-03-13T00:31:59.429Z,96.05
2023-03-13T00:34:25.723Z,96.12
2023-03-13T00:36:52.069Z,96.06
2023-03-13T00:39:18.423Z,96.15
2023-03-13T00:41:44.814Z,96.19
2023-03-13T00:44:11.125Z,96.26
2023-03-13T00:46:37.594Z,96.25
2023-03-13T00:49:03.824Z,96.22
2023-03-13T00:51:30.189Z,96.20
2023-03-13T00:53:58.276Z,96.25
2023-03-13T00:56:22.930Z,96.28
2023-03-13T00:58:49.369Z,96.30
2023-03-13T01:01:15.712Z,96.25
2023-03-13T01:03:42.117Z,96.32
2023-03-13T01:06:08.464Z,96.32
2023-03-13T01:08:34.851Z,96.37
2023-03-13T01:11:01.204Z,96.30
2023-03-13T01:13:27.772Z,96.34
2023-03-13T01:15:54.165Z,96.30
2023-03-13T01:18:20.467Z,96.38
2023-03-13T01:20:47.115Z,96.48
2023-03-13T01:23:13.496Z,96.42
2023-03-13T01:25:39.983Z,96.42
2023-03-13T01:28:06.289Z,96.57
2023-03-13T01:30:32.633Z,96.60
2023-03-13T01:32:59.034Z,96.67
2023-03-13T01:35:25.393Z,96.57
2023-03-13T01:37:51.668Z,96.71
2023-03-13T01:40:18.021Z,96.72
2023-03-13T01:42:44.412Z,96.79
2023-03-13T01:45:10.720Z,96.87
2023-03-13T01:47:37.060Z,96.93
2023-03-13T01:50:03.441Z,96.79
2023-03-13T01:52:30.522Z,96.76
2023-03-13T01:54:56.852Z,96.68
2023-03-13T01:57:23.182Z,96.64
2023-03-13T01:59:49.566Z,96.71
2023-03-13T02:02:15.883Z,96.65
2023-03-13T02:04:42.373Z,96.54
2023-03-13T02:07:08.738Z,96.44
2023-03-13T02:09:35.112Z,96.34
2023-03-13T02:12:01.432Z,96.31
2023-03-13T02:14:27.794Z,96.16
2023-03-13T02:16:54.129Z,96.03
2023-03-13T02:19:20.512Z,95.96
2023-03-13T02:21:46.841Z,95.91
2023-03-13T02:24:13.230Z,95.81
2023-03-13T02:26:39.545Z,95.85
2023-03-13T02:29:05.902Z,95.81
2023-03-13T02:31:32.303Z,95.73
2023-03-13T02:33:58.657Z,95.67
2023-03-13T02:36:25.009Z,95.80
2023-03-13T02:38:51.313Z,95.79
2023-03-13T02:41:17.673Z,95.79
2023-03-13T02:43:44.017Z,95.86
2023-03-13T02:46:10.354Z,95.81
2023-03-13T02:48:36.685Z,95.90
2023-03-13T02:51:03.052Z,95.87
2023-03-13T02:53:29.391Z,96.06
2023-03-13T02:55:57.949Z,96.09
2023-03-13T02:58:24.270Z,96.04
2023-03-13T03:00:50.683Z,96.05
2023-03-13T03:03:16.978Z,96.17
2023-03-13T03:05:43.265Z,96.21
2023-03-13T03:08:09.644Z,96.27
2023-03-13T03:10:36.082Z,96.30
2023-03-13T03:13:02.388Z,96.26
2023-03-13T03:15:28.773Z,96.33
2023-03-13T03:17:55.124Z,96.33
2023-03-13T03:20:21.487Z,96.21
2023-03-13T03:22:47.822Z,96.32
2023-03-13T03:25:14.141Z,96.42
2023-03-13T03:27:40.485Z,96.39
2023-03-13T03:30:06.826Z,96.41
2023-03-13T03:32:33.252Z,96.58
2023-03-13T03:34:59.555Z,96.62
2023-03-13T03:37:25.900Z,96.60
2023-03-13T03:39:52.230Z,96.68
2023-03-13T03:42:18.623Z,96.77
2023-03-13T03:44:44.971Z,96.76
2023-03-13T03:47:11.412Z,96.81
2023-03-13T03:49:37.714Z,96.83
2023-03-13T03:52:04.053Z,96.74
2023-03-13T03:54:30.425Z,96.84
2023-03-13T03:56:56.975Z,96.80
2023-03-13T03:59:23.357Z,96.81
2023-03-13T04:01:49.730Z,96.84
2023-03-13T04:04:16.041Z,96.83
2023-03-13T04:06:42.414Z,96.93
2023-03-13T04:09:08.779Z,96.91
2023-03-13T04:11:35.126Z,96.91
2023-03-13T04:14:01.493Z,96.97
2023-03-13T04:16:27.896Z,96.95
2023-03-13T04:18:54.177Z,97.00
2023-03-13T04:21:20.533Z,97.00
2023-03-13T04:23:46.842Z,97.05
2023-03-13T04:26:13.228Z,97.13
2023-03-13T04:28:39.546Z,97.26
2023-03-13T04:31:05.958Z,97.22
2023-03-13T04:33:32.275Z,97.22
2023-03-13T04:35:58.683Z,97.23
2023-03-13T04:38:24.983Z,97.30
2023-03-13T04:40:51.353Z,97.25
2023-03-13T04:43:17.815Z,97.30
2023-03-13T04:45:44.187Z,97.38
2023-03-13T04:48:10.525Z,97.40
2023-03-13T04:50:36.914Z,97.50
2023-03-13T04:53:03.226Z,97.70
2023-03-13T04:55:29.680Z,97.75
2023-03-13T04:57:56.035Z,97.90
2023-03-13T05:00:22.354Z,98.10
2023-03-13T05:02:48.782Z,98.24
2023-03-13T05:05:15.250Z,98.43
2023-03-13T05:07:41.539Z,98.62
2023-03-13T05:10:07.918Z,98.85
2023-03-13T05:12:34.263Z,99.06
2023-03-13T05:15:00.649Z,99.27
2023-03-13T05:17:27.056Z,99.43
2023-03-13T05:19:53.390Z,99.57
2023-03-13T05:22:19.746Z,99.82
2023-03-13T05:24:46.110Z,100.00
2023-03-13T05:27:12.474Z,100.00
2023-03-13T05:29:38.864Z,100.00
2023-03-13T05:32:05.260Z,100.00
2023-03-13T05:34:31.646Z,100.00
2023-03-13T05:36:57.979Z,100.00
2023-03-13T05:39:24.365Z,100.00
2023-03-13T05:41:50.720Z,87.60
2023-03-13T05:44:17.099Z,79.51
2023-03-13T05:46:43.477Z,73.98
2023-03-13T05:49:09.766Z,69.54
2023-03-13T05:51:36.308Z,67.54
2023-03-13T05:54:02.684Z,66.66
2023-03-13T05:56:29.037Z,66.43
2023-03-13T05:58:55.393Z,65.64
2023-03-13T06:01:21.726Z,65.08
2023-03-13T06:03:48.195Z,65.52
2023-03-13T06:06:14.494Z,65.35
2023-03-13T06:08:40.816Z,65.32
2023-03-13T06:11:07.152Z,65.24
2023-03-13T06:13:33.685Z,64.97
2023-03-13T06:16:00.208Z,63.75
2023-03-13T06:18:26.518Z,63.14
2023-03-13T06:20:52.903Z,63.06
2023-03-13T06:23:19.271Z,63.36
2023-03-13T06:25:45.656Z,62.89
2023-03-13T06:28:11.977Z,62.51
2023-03-13T06:30:38.379Z,62.79
2023-03-13T06:33:04.859Z,62.75
2023-03-13T06:35:31.187Z,62.41
2023-03-13T06:37:57.462Z,62.86
2023-03-13T06:40:23.851Z,62.13
2023-03-13T06:42:50.177Z,59.74
2023-03-13T06:45:16.599Z,59.76
2023-03-13T06:47:45.325Z,59.06
2023-03-13T06:50:11.670Z,59.11
2023-03-13T06:52:43.918Z,58.93
2023-03-13T06:55:04.393Z,59.06
2023-03-13T06:57:30.718Z,69.73
2023-03-13T06:59:57.061Z,76.12
2023-03-13T07:02:23.416Z,72.19
2023-03-13T07:04:49.757Z,69.71
2023-03-13T07:07:26.035Z,68.17
2023-03-13T07:09:42.436Z,67.09
2023-03-13T07:12:08.801Z,67.24
2023-03-13T07:14:35.148Z,64.29
2023-03-13T07:17:01.781Z,63.11
2023-03-13T07:19:31.253Z,59.17
2023-03-13T07:21:57.578Z,54.76
2023-03-13T07:24:23.957Z,53.57
2023-03-13T07:27:04.632Z,53.28
2023-03-13T07:29:16.651Z,53.96
2023-03-13T07:31:43.538Z,53.08
2023-03-13T07:34:09.801Z,52.41
2023-03-13T07:36:36.155Z,51.22
2023-03-13T07:39:02.483Z,51.29
2023-03-13T07:41:28.881Z,50.92
2023-03-13T07:43:55.224Z,52.46
2023-03-13T07:46:21.771Z,51.26
2023-03-13T07:48:48.022Z,50.90
2023-03-13T07:51:14.734Z,50.62
2023-03-13T07:53:40.949Z,50.26
2023-03-13T07:56:07.685Z,49.57
2023-03-13T07:58:33.562Z,48.60
2023-03-13T08:01:02.537Z,48.38
2023-03-13T08:03:28.971Z,48.14
2023-03-13T08:05:55.284Z,47.69
2023-03-13T08:08:21.746Z,47.45
2023-03-13T08:10:50.527Z,47.11
2023-03-13T08:13:16.862Z,46.71
2023-03-13T08:15:43.341Z,47.02
2023-03-13T08:18:09.732Z,47.19
2023-03-13T08:20:36.053Z,45.36
2023-03-13T08:23:02.409Z,44.62
2023-03-13T08:25:28.754Z,44.71
2023-03-13T08:27:57.284Z,44.34
2023-03-13T08:30:23.676Z,44.12
2023-03-13T08:32:50.156Z,44.16
2023-03-13T08:35:16.466Z,43.19
2023-03-13T08:37:42.847Z,42.88
2023-03-13T08:40:09.150Z,42.36
2023-03-13T08:42:35.815Z,42.26
2023-03-13T08:45:03.256Z,42.33
2023-03-13T08:47:29.607Z,42.26
2023-03-13T08:49:56.025Z,41.30
2023-03-13T08:52:24.794Z,41.41
2023-03-13T08:54:52.415Z,41.25
2023-03-13T08:57:18.782Z,41.45
2023-03-13T08:59:45.171Z,40.52
2023-03-13T09:02:11.600Z,40.19
2023-03-13T09:04:37.905Z,39.71
2023-03-13T09:07:04.292Z,39.18
2023-03-13T09:09:30.753Z,39.26
2023-03-13T09:11:57.133Z,38.72
2023-03-13T09:14:23.458Z,39.07
2023-03-13T09:16:49.846Z,38.42
2023-03-13T09:19:16.192Z,38.30
2023-03-13T09:21:42.571Z,37.57
2023-03-13T09:24:09.253Z,37.25
2023-03-13T09:26:35.566Z,36.61
2023-03-13T09:29:04.112Z,36.33
2023-03-13T09:31:30.672Z,36.20
2023-03-13T09:33:56.893Z,36.35
2023-03-13T09:36:23.366Z,35.93
2023-03-13T09:38:49.605Z,35.93
2023-03-13T09:41:15.995Z,35.48
2023-03-13T09:43:42.316Z,35.52
2023-03-13T09:46:08.717Z,35.05
2023-03-13T09:48:35.209Z,35.21
2023-03-13T09:51:01.506Z,35.44
2023-03-13T09:53:27.836Z,34.60
2023-03-13T09:55:54.227Z,34.54
2023-03-13T09:58:20.561Z,33.23
2023-03-13T10:00:46.924Z,33.33
2023-03-13T10:03:13.555Z,33.29
2023-03-13T10:05:39.951Z,33.41
2023-03-13T10:08:06.269Z,33.14
2023-03-13T10:10:32.639Z,32.10
2023-03-13T10:12:59.005Z,32.58
2023-03-13T10:15:25.352Z,32.41
2023-03-13T10:17:51.694Z,32.29
2023-03-13T10:20:18.507Z,32.29
2023-03-13T10:22:44.744Z,31.96
2023-03-13T10:25:11.131Z,31.88
2023-03-13T10:27:37.454Z,32.11
2023-03-13T10:30:03.824Z,31.51
2023-03-13T10:32:30.267Z,31.62
2023-03-13T10:34:56.621Z,31.99
2023-03-13T10:37:23.000Z,32.14
2023-03-13T10:39:49.454Z,31.80
2023-03-13T10:42:15.769Z,31.52
2023-03-13T10:44:42.177Z,31.27
2023-03-13T10:47:08.529Z,31.25
2023-03-13T10:49:34.886Z,31.53
2023-03-13T10:52:01.203Z,34.62
2023-03-13T10:54:27.643Z,35.89
2023-03-13T10:56:53.991Z,41.41
2023-03-13T10:59:20.358Z,42.63
2023-03-13T11:01:46.724Z,34.32
2023-03-13T11:04:13.060Z,32.91
2023-03-13T11:06:39.404Z,32.58
2023-03-13T11:09:05.848Z,32.12
2023-03-13T11:11:32.211Z,35.27
2023-03-13T11:13:58.584Z,39.61
2023-03-13T11:16:25.153Z,40.87
2023-03-13T11:18:51.377Z,40.57
2023-03-13T11:21:18.655Z,36.28
2023-03-13T11:23:44.141Z,37.59
2023-03-13T11:26:10.464Z,38.41
2023-03-13T11:28:36.862Z,35.80
2023-03-13T11:31:03.264Z,32.47
2023-03-13T11:33:29.949Z,30.52
2023-03-13T11:35:56.615Z,32.60
2023-03-13T11:38:22.996Z,33.68
2023-03-13T11:40:49.419Z,35.12
2023-03-13T11:43:25.154Z,35.64
2023-03-13T11:45:42.179Z,34.65
2023-03-13T11:48:08.476Z,32.50
2023-03-13T11:50:34.848Z,33.05
2023-03-13T11:53:01.245Z,32.48
2023-03-13T11:55:27.561Z,31.60
2023-03-13T11:57:54.006Z,31.61
2023-03-13T12:00:20.381Z,31.82
2023-03-13T12:02:46.781Z,31.65
2023-03-13T12:05:13.125Z,31.77
2023-03-13T12:07:39.450Z,30.75
2023-03-13T12:10:05.778Z,29.71
2023-03-13T12:12:32.122Z,30.10
2023-03-13T12:14:58.516Z,30.00
2023-03-13T12:17:24.944Z,30.32
2023-03-13T12:19:51.254Z,29.95
2023-03-13T12:22:17.656Z,29.73
2023-03-13T12:24:44.308Z,29.76
2023-03-13T12:27:11.783Z,30.01
2023-03-13T12:29:38.116Z,30.44
2023-03-13T12:32:04.500Z,30.15
2023-03-13T12:34:31.169Z,29.77
2023-03-13T12:36:57.601Z,30.16
2023-03-13T12:39:23.932Z,29.78
2023-03-13T12:41:50.316Z,29.01
2023-03-13T12:44:16.672Z,29.15
2023-03-13T12:46:43.189Z,29.36
2023-03-13T12:49:09.722Z,29.62
2023-03-13T12:51:36.056Z,29.42
2023-03-13T12:54:02.449Z,29.78
2023-03-13T12:56:28.808Z,29.83
2023-03-13T12:58:55.165Z,29.48
2023-03-13T13:01:21.594Z,29.92
2023-03-13T13:03:47.895Z,30.08
2023-03-13T13:06:14.656Z,30.19
2023-03-13T13:08:40.994Z,30.08
2023-03-13T13:11:07.337Z,30.10
2023-03-13T13:13:33.718Z,30.14
2023-03-13T13:16:02.576Z,29.91
2023-03-13T13:18:28.860Z,30.13
2023-03-13T13:20:55.231Z,30.63
2023-03-13T13:23:21.680Z,30.82
2023-03-13T13:25:48.030Z,30.58
2023-03-13T13:28:14.413Z,30.35
2023-03-13T13:30:40.824Z,30.28
2023-03-13T13:33:09.091Z,30.54
2023-03-13T13:35:33.658Z,30.25
2023-03-13T13:38:00.041Z,30.46
2023-03-13T13:40:26.910Z,30.41
2023-03-13T13:42:53.313Z,30.31
2023-03-13T13:45:19.666Z,30.70
2023-03-13T13:47:46.130Z,30.84
2023-03-13T13:50:12.550Z,30.63
2023-03-13T13:52:38.885Z,30.92
2023-03-13T13:55:05.409Z,31.66
2023-03-13T13:57:31.795Z,31.72
2023-03-13T13:59:58.173Z,31.84
2023-03-13T14:02:24.550Z,32.04
2023-03-13T14:04:50.944Z,32.07
2023-03-13T14:07:17.272Z,32.25
2023-03-13T14:09:43.620Z,32.46
2023-03-13T14:12:10.089Z,32.35
2023-03-13T14:14:36.522Z,32.61
2023-03-13T14:17:02.905Z,32.65
2023-03-13T14:19:29.288Z,33.24
2023-03-13T14:21:55.648Z,33.77
2023-03-13T14:24:21.992Z,34.15
2023-03-13T14:26:48.326Z,35.49
2023-03-13T14:29:14.679Z,38.34
2023-03-13T14:31:41.256Z,38.76
2023-03-13T14:34:07.575Z,39.60
2023-03-13T14:36:33.969Z,39.76
2023-03-13T14:39:00.329Z,38.94
2023-03-13T14:41:26.670Z,38.89
2023-03-13T14:43:53.077Z,47.61
2023-03-13T14:46:19.521Z,48.45
2023-03-13T14:48:45.829Z,43.63
2023-03-13T14:51:16.042Z,40.01
2023-03-13T14:53:38.558Z,39.79
2023-03-13T14:56:04.924Z,40.02
2023-03-13T14:58:31.300Z,39.12
2023-03-13T15:00:57.673Z,37.79
2023-03-13T15:03:23.985Z,37.28
2023-03-13T15:05:50.350Z,36.45
2023-03-13T15:08:16.739Z,36.02
2023-03-13T15:10:43.086Z,35.46
2023-03-13T15:13:09.468Z,36.01
2023-03-13T15:15:35.805Z,36.26
2023-03-13T15:18:02.209Z,37.29
2023-03-13T15:20:28.540Z,37.38
2023-03-13T15:22:54.892Z,37.31
2023-03-13T15:25:21.274Z,37.16
2023-03-13T15:27:47.659Z,37.69
2023-03-13T15:30:14.034Z,37.95
2023-03-13T15:32:40.499Z,37.86
2023-03-13T15:35:06.722Z,37.85
2023-03-13T15:37:33.116Z,37.14
2023-03-13T15:39:59.555Z,37.01
2023-03-13T15:42:26.016Z,36.90
2023-03-13T15:44:52.392Z,37.12
2023-03-13T15:47:18.747Z,37.03
2023-03-13T15:49:45.217Z,37.29
2023-03-13T15:52:11.562Z,37.84
2023-03-13T15:54:37.924Z,37.89
2023-03-13T15:57:04.246Z,37.71
2023-03-13T15:59:30.570Z,38.00
2023-03-13T16:01:56.938Z,37.68
2023-03-13T16:04:23.371Z,37.67
2023-03-13T16:06:49.797Z,37.52
2023-03-13T16:09:16.161Z,37.43
2023-03-13T16:11:42.539Z,37.52
2023-03-13T16:14:08.829Z,37.38
2023-03-13T16:16:37.595Z,37.68
2023-03-13T16:19:01.504Z,38.07
2023-03-13T16:21:27.850Z,39.15
2023-03-13T16:23:54.192Z,38.88
2023-03-13T16:26:20.586Z,38.66
2023-03-13T16:28:46.918Z,38.90
2023-03-13T16:31:13.417Z,38.75
2023-03-13T16:33:39.793Z,39.34
2023-03-13T16:36:06.194Z,39.52
2023-03-13T16:38:32.607Z,39.46
2023-03-13T16:40:58.937Z,39.09
2023-03-13T16:43:27.797Z,38.74
2023-03-13T16:45:54.556Z,38.58
2023-03-13T16:48:21.008Z,38.85
2023-03-13T16:50:47.379Z,38.96
2023-03-13T16:53:13.793Z,39.01
2023-03-13T16:55:40.199Z,39.15
2023-03-13T16:58:06.546Z,39.38
2023-03-13T17:00:33.069Z,39.43
2023-03-13T17:02:59.414Z,39.49
2023-03-13T17:05:25.720Z,39.97
2023-03-13T17:07:52.101Z,39.69
2023-03-13T17:10:18.483Z,44.70
2023-03-13T17:12:44.848Z,48.87
2023-03-13T17:15:11.240Z,48.06
2023-03-13T17:17:37.728Z,47.82
2023-03-13T17:20:04.100Z,48.39
2023-03-13T17:22:32.654Z,49.10
2023-03-13T17:24:59.022Z,49.76
2023-03-13T17:27:25.378Z,50.48
2023-03-13T17:29:51.758Z,51.13
2023-03-13T17:32:18.141Z,51.76
2023-03-13T17:34:46.690Z,52.35
2023-03-13T17:37:13.077Z,52.93
2023-03-13T17:39:39.481Z,53.55
2023-03-13T17:42:07.069Z,54.13
2023-03-13T17:44:33.568Z,54.69
2023-03-13T17:46:59.970Z,55.21
2023-03-13T17:49:26.301Z,55.73
2023-03-13T17:51:52.716Z,56.32
2023-03-13T17:54:19.084Z,56.82
2023-03-13T17:56:45.442Z,57.35
2023-03-13T17:59:11.865Z,59.70
2023-03-13T18:01:38.286Z,60.16
2023-03-13T18:04:04.817Z,60.73
2023-03-13T18:06:31.300Z,61.28
2023-03-13T18:08:57.614Z,61.82
2023-03-13T18:11:24.027Z,62.44
2023-03-13T18:13:50.363Z,63.06
2023-03-13T18:16:16.793Z,63.63
2023-03-13T18:18:43.113Z,64.28
2023-03-13T18:21:09.534Z,64.93
2023-03-13T18:23:39.040Z,65.66
2023-03-13T18:26:05.393Z,66.41
2023-03-13T18:28:31.764Z,67.09
2023-03-13T18:30:58.158Z,67.83
2023-03-13T18:33:24.592Z,68.55
2023-03-13T18:35:51.007Z,69.21
2023-03-13T18:38:17.296Z,69.96
2023-03-13T18:40:43.647Z,70.58
2023-03-13T18:43:10.010Z,71.18
2023-03-13T18:45:36.408Z,71.75
2023-03-13T18:48:02.681Z,72.31
2023-03-13T18:50:29.038Z,72.89
2023-03-13T18:52:55.500Z,73.45
2023-03-13T18:55:21.742Z,73.98
2023-03-13T18:57:48.230Z,74.49
2023-03-13T19:00:14.525Z,75.00
2023-03-13T19:02:42.217Z,75.44
2023-03-13T19:05:08.671Z,77.58
2023-03-13T19:07:35.021Z,78.12
2023-03-13T19:10:01.366Z,81.13
2023-03-13T19:12:27.716Z,84.19
2023-03-13T19:14:54.138Z,84.45
2023-03-13T19:17:22.712Z,84.33
2023-03-13T19:19:49.023Z,84.38
2023-03-13T19:22:15.384Z,84.46
2023-03-13T19:24:41.770Z,84.52
2023-03-13T19:27:08.125Z,84.41
2023-03-13T19:29:34.488Z,84.64
2023-03-13T19:32:01.192Z,84.58
2023-03-13T19:34:28.594Z,84.86
2023-03-13T19:36:55.265Z,84.70
2023-03-13T19:39:23.817Z,84.70
2023-03-13T19:41:50.138Z,84.82
2023-03-13T19:44:18.729Z,84.91
2023-03-13T19:46:45.094Z,85.03
2023-03-13T19:49:11.492Z,85.14
2023-03-13T19:51:39.315Z,85.32
2023-03-13T19:54:05.720Z,85.49
2023-03-13T19:56:32.133Z,85.54
2023-03-13T19:58:58.852Z,85.82
2023-03-13T20:01:25.294Z,86.04
2023-03-13T20:03:52.063Z,86.05
2023-03-13T20:06:18.405Z,86.13
2023-03-13T20:08:44.876Z,86.38
2023-03-13T20:11:11.284Z,86.44
2023-03-13T20:13:37.714Z,86.59
2023-03-13T20:16:04.156Z,86.80
2023-03-13T20:18:30.578Z,86.99
2023-03-13T20:20:57.153Z,87.19
2023-03-13T20:23:23.539Z,87.32
2023-03-13T20:25:49.909Z,87.44
2023-03-13T20:28:16.268Z,87.56
2023-03-13T20:30:42.756Z,87.70
2023-03-13T20:33:09.151Z,87.84
2023-03-13T20:35:35.510Z,87.92
2023-03-13T20:38:01.933Z,87.99
2023-03-13T20:40:29.434Z,88.09
2023-03-13T20:42:58.383Z,88.14
2023-03-13T20:45:23.260Z,88.30
2023-03-13T20:47:49.627Z,88.31
2023-03-13T20:50:17.471Z,88.40
2023-03-13T20:52:42.336Z,88.50
2023-03-13T20:55:08.743Z,88.55
2023-03-13T20:57:35.146Z,88.65
2023-03-13T21:00:01.474Z,88.72
2023-03-13T21:02:29.971Z,88.83
2023-03-13T21:04:56.409Z,88.84
2023-03-13T21:07:22.703Z,89.00
2023-03-13T21:09:49.028Z,88.93
2023-03-13T21:12:15.417Z,89.05
2023-03-13T21:14:44.231Z,89.13
2023-03-13T21:17:10.800Z,89.25
2023-03-13T21:19:38.342Z,89.24
2023-03-13T21:22:06.862Z,89.18
2023-03-13T21:24:34.197Z,89.35
2023-03-13T21:27:00.588Z,89.39
2023-03-13T21:29:26.913Z,89.48
2023-03-13T21:31:53.294Z,89.45
2023-03-13T21:34:19.583Z,89.83
2023-03-13T21:36:45.972Z,91.95
2023-03-13T21:39:13.365Z,93.85
2023-03-13T21:41:39.738Z,95.42
2023-03-13T21:44:06.062Z,95.64
2023-03-13T21:46:32.450Z,95.64
2023-03-13T21:48:58.725Z,95.59
2023-03-13T21:51:25.129Z,95.81
2023-03-13T21:53:51.439Z,95.93
2023-03-13T21:56:18.882Z,96.10
2023-03-13T21:58:45.203Z,96.27
2023-03-13T22:01:11.669Z,96.62
2023-03-13T22:03:37.957Z,96.95
2023-03-13T22:06:04.276Z,97.29
2023-03-13T22:08:30.634Z,97.55
2023-03-13T22:10:56.973Z,97.81
2023-03-13T22:13:23.349Z,98.11
2023-03-13T22:15:49.683Z,98.25
2023-03-13T22:18:16.056Z,98.49
2023-03-13T22:20:42.440Z,98.77
2023-03-13T22:23:08.734Z,99.02
2023-03-13T22:25:35.129Z,99.12
2023-03-13T22:28:01.492Z,99.29
2023-03-13T22:30:27.899Z,99.47
2023-03-13T22:32:54.344Z,99.66
2023-03-13T22:35:20.653Z,99.82
2023-03-13T22:37:46.969Z,100.00
2023-03-13T22:40:13.354Z,100.00
2023-03-13T22:42:39.684Z,100.00
2023-03-13T22:45:06.038Z,100.00
2023-03-13T22:47:32.446Z,100.00
2023-03-13T22:49:58.796Z,100.00
2023-03-13T22:52:25.134Z,100.00
2023-03-13T22:54:51.493Z,100.00
2023-03-13T22:57:17.813Z,100.00
2023-03-13T22:59:44.164Z,100.00
2023-03-13T23:02:10.487Z,100.00
2023-03-13T23:04:38.046Z,100.00
2023-03-13T23:07:04.362Z,100.00
2023-03-13T23:09:30.748Z,100.00
2023-03-13T23:11:57.101Z,100.00
2023-03-13T23:14:23.483Z,100.00
2023-03-13T23:16:49.802Z,100.00
2023-03-13T23:19:16.576Z,100.00
2023-03-13T23:21:42.941Z,100.00
2023-03-13T23:24:09.332Z,100.00
2023-03-13T23:26:35.685Z,100.00
2023-03-13T23:29:02.086Z,100.00
2023-03-13T23:31:28.780Z,100.00
2023-03-13T23:33:55.171Z,100.00
2023-03-13T23:36:21.509Z,100.00
2023-03-13T23:38:47.839Z,100.00
2023-03-13T23:41:14.216Z,100.00
2023-03-13T23:43:40.519Z,100.00
2023-03-13T23:46:06.865Z,100.00
2023-03-13T23:48:33.243Z,100.00
2023-03-13T23:50:59.610Z,100.00
2023-03-13T23:53:25.965Z,100.00
2023-03-13T23:55:52.294Z,100.00
2023-03-13T23:58:18.649Z,100.00
